Time;durP1;ratioP1;P1;durP2;ratioP2;P2;SDS_P1;SDS_P2;PMS_P1;PMS_P2;Temp;Humidity;BMP_temperature;BMP_pressure;BME280_temperature;BME280_humidity;BME280_pressure;Samples;Min_cycle;Max_cycle;Signal;HPM_P1;HPM_P2
2024/04/11 00:02:10;;;;;;;7.75;3.03;;;10.50;99.90;;;;;;5463922;26;20043;-73
2024/04/11 00:04:36;;;;;;;11.65;2.97;;;10.60;99.90;;;;;;5466275;26;20039;-72
2024/04/11 00:07:03;;;;;;;7.38;2.53;;;10.60;99.90;;;;;;5469301;26;20045;-73
2024/04/11 00:09:30;;;;;;;11.57;2.80;;;10.60;99.90;;;;;;5466321;26;20026;-73
2024/04/11 00:11:57;;;;;;;8.07;2.60;;;10.70;99.90;;;;;;5469077;26;20031;-73
2024/04/11 00:14:24;;;;;;;6.03;2.70;;;10.70;99.90;;;;;;5475598;26;20031;-73
2024/04/11 00:16:52;;;;;;;7.28;2.53;;;10.70;99.90;;;;;;5459763;26;20027;-73
2024/04/11 00:19:19;;;;;;;8.48;2.47;;;10.70;99.90;;;;;;5457094;26;20031;-73
2024/04/11 00:21:48;;;;;;;7.35;2.40;;;10.80;99.90;;;;;;5476249;26;20042;-73
2024/04/11 00:24:16;;;;;;;7.90;2.13;;;10.80;99.90;;;;;;5462668;26;20362;-73
2024/04/11 00:26:45;;;;;;;10.27;2.72;;;10.80;99.90;;;;;;5485442;26;20038;-73
2024/04/11 00:29:12;;;;;;;5.75;1.98;;;10.80;99.90;;;;;;5469737;26;20038;-73
2024/04/11 00:31:40;;;;;;;7.68;2.50;;;10.80;99.90;;;;;;5478304;26;20030;-73
2024/04/11 00:34:15;;;;;;;7.57;2.33;;;10.90;99.90;;;;;;5461878;26;20022;-73
2024/04/11 00:36:44;;;;;;;10.25;2.30;;;10.90;99.90;;;;;;5461100;26;20046;-73
2024/04/11 00:39:24;;;;;;;7.60;2.05;;;10.90;99.90;;;;;;5463533;26;20042;-74
2024/04/11 00:41:52;;;;;;;11.07;2.55;;;10.90;99.90;;;;;;5466605;26;20035;-73
2024/04/11 00:44:19;;;;;;;7.93;2.28;;;11.00;99.90;;;;;;5461214;26;20039;-72
2024/04/11 00:46:47;;;;;;;9.75;2.13;;;11.00;99.90;;;;;;5481775;26;20488;-73
2024/04/11 00:49:15;;;;;;;10.50;2.03;;;11.10;99.90;;;;;;5478168;26;20034;-73
2024/04/11 00:51:42;;;;;;;7.45;2.00;;;11.10;99.90;;;;;;5456549;26;20035;-73
2024/04/11 00:54:09;;;;;;;8.02;2.25;;;11.10;99.90;;;;;;5478093;26;20033;-73
2024/04/11 00:56:36;;;;;;;9.25;2.10;;;11.10;99.90;;;;;;5454758;26;20038;-73
2024/04/11 00:59:04;;;;;;;8.85;2.05;;;11.20;99.90;;;;;;5469214;26;20031;-73
2024/04/11 01:01:31;;;;;;;5.30;1.95;;;11.20;99.90;;;;;;5478928;26;20026;-72
2024/04/11 01:04:03;;;;;;;9.98;2.13;;;11.20;99.90;;;;;;5469070;26;20045;-73
2024/04/11 01:07:09;;;;;;;9.57;2.03;;;11.20;99.90;;;;;;5466421;26;20038;-73
2024/04/11 01:09:41;;;;;;;9.85;2.28;;;11.30;99.90;;;;;;5457889;26;20031;-73
2024/04/11 01:12:11;;;;;;;;;;;11.30;99.90;;;;;;5468508;26;20563;-74
2024/04/11 01:14:41;;;;;;;6.22;2.22;;;11.30;99.90;;;;;;5451984;26;19948;-73
2024/04/11 01:17:10;;;;;;;8.98;2.80;;;11.30;99.90;;;;;;5458789;26;20026;-73
2024/04/11 01:19:37;;;;;;;6.32;2.10;;;11.40;99.90;;;;;;5464763;26;20031;-73
2024/04/11 01:22:05;;;;;;;7.30;1.90;;;11.40;99.90;;;;;;5474346;26;20046;-73
2024/04/11 01:24:34;;;;;;;6.78;1.85;;;11.40;99.90;;;;;;5474887;26;20035;-73
2024/04/11 01:27:04;;;;;;;10.65;2.53;;;11.50;99.90;;;;;;5472169;26;20031;-73
2024/04/11 01:29:31;;;;;;;6.22;1.90;;;11.50;99.90;;;;;;5467907;26;20470;-73
2024/04/11 01:31:59;;;;;;;9.40;2.35;;;11.80;99.90;;;;;;5467278;26;20033;-73
2024/04/11 01:34:30;;;;;;;9.38;1.98;;;11.60;99.90;;;;;;5467759;26;20459;-73
2024/04/11 01:36:57;;;;;;;7.25;1.83;;;11.60;99.90;;;;;;5465444;26;20050;-73
2024/04/11 01:39:25;;;;;;;5.97;1.80;;;11.60;99.90;;;;;;5467771;26;20365;-73
2024/04/11 01:41:53;;;;;;;6.85;1.92;;;11.60;99.90;;;;;;5461259;26;20026;-73
2024/04/11 01:44:20;;;;;;;6.78;1.90;;;11.70;99.90;;;;;;5459366;26;20474;-73
2024/04/11 01:46:48;;;;;;;6.93;1.73;;;11.70;99.90;;;;;;5478367;26;20034;-73
2024/04/11 01:49:16;;;;;;;11.20;1.90;;;11.70;99.90;;;;;;5466663;26;20032;-73
2024/04/11 01:51:43;;;;;;;7.20;1.88;;;11.70;99.90;;;;;;5469843;26;20030;-74
2024/04/11 01:54:11;;;;;;;6.10;1.88;;;11.70;99.90;;;;;;5457909;26;20027;-73
2024/04/11 01:56:39;;;;;;;6.53;1.90;;;11.80;99.90;;;;;;5465345;26;20022;-72
2024/04/11 01:59:06;;;;;;;13.38;2.45;;;11.80;99.90;;;;;;5453168;26;20031;-72
2024/04/11 02:01:34;;;;;;;5.55;1.90;;;11.80;99.90;;;;;;5459658;26;20042;-73
2024/04/11 02:04:05;;;;;;;7.57;2.13;;;11.80;99.90;;;;;;5474328;26;20101;-73
2024/04/11 02:06:34;;;;;;;8.75;1.73;;;11.80;99.90;;;;;;5474294;26;20034;-72
2024/04/11 02:09:05;;;;;;;8.00;1.77;;;11.80;99.90;;;;;;5462345;26;20022;-72
2024/04/11 02:11:33;;;;;;;6.57;1.77;;;11.80;99.90;;;;;;5468902;26;20505;-72
2024/04/11 02:14:01;;;;;;;10.18;1.90;;;11.80;99.90;;;;;;5469327;26;20034;-72
2024/04/11 02:16:35;;;;;;;9.25;2.08;;;11.80;99.90;;;;;;5472908;26;20023;-72
2024/04/11 02:19:06;;;;;;;10.30;1.90;;;11.80;99.90;;;;;;5460259;26;20022;-72
2024/04/11 02:21:34;;;;;;;7.47;1.60;;;11.80;99.90;;;;;;5462406;26;20035;-72
2024/04/11 02:24:01;;;;;;;8.23;1.90;;;11.80;99.90;;;;;;5462540;26;20025;-72
2024/04/11 02:26:29;;;;;;;6.60;1.60;;;11.80;99.90;;;;;;5472778;26;20031;-72
2024/04/11 02:28:56;;;;;;;15.13;2.30;;;11.80;99.90;;;;;;5458291;26;20481;-72
2024/04/11 02:31:23;;;;;;;10.55;2.00;;;11.80;99.90;;;;;;5449111;26;20043;-72
2024/04/11 02:33:50;;;;;;;6.38;1.50;;;11.90;99.90;;;;;;5453887;26;20047;-72
2024/04/11 02:36:18;;;;;;;7.72;1.80;;;11.90;99.90;;;;;;5464695;26;20038;-72
2024/04/11 02:38:45;;;;;;;4.60;1.70;;;11.90;99.90;;;;;;5470022;26;20480;-72
2024/04/11 02:41:12;;;;;;;9.27;2.20;;;11.90;99.90;;;;;;5482229;26;20030;-72
2024/04/11 02:43:40;;;;;;;6.75;1.90;;;11.90;99.90;;;;;;5461470;26;20026;-72
2024/04/11 02:46:15;;;;;;;8.70;1.83;;;11.80;99.90;;;;;;5456795;26;20034;-72
2024/04/11 02:48:43;;;;;;;9.68;2.10;;;11.90;99.90;;;;;;5478251;26;20022;-72
2024/04/11 02:51:13;;;;;;;8.38;2.15;;;11.80;99.90;;;;;;5467257;26;20042;-72
2024/04/11 02:53:42;;;;;;;9.18;2.13;;;11.90;99.90;;;;;;5471388;26;20030;-72
2024/04/11 02:56:11;;;;;;;9.52;2.25;;;11.90;99.90;;;;;;5478906;26;20034;-72
2024/04/11 02:58:39;;;;;;;10.43;1.80;;;11.90;99.90;;;;;;5457176;26;20030;-72
2024/04/11 03:01:08;;;;;;;7.70;1.90;;;11.80;99.90;;;;;;5461460;26;20023;-72
2024/04/11 03:03:37;;;;;;;8.73;2.35;;;11.80;99.90;;;;;;5457114;26;20031;-72
2024/04/11 03:06:12;;;;;;;11.25;2.00;;;11.80;99.90;;;;;;5470045;26;20034;-72
2024/04/11 03:08:42;;;;;;;6.35;1.70;;;11.90;99.90;;;;;;5457315;26;20035;-72
2024/04/11 03:11:10;;;;;;;7.72;2.55;;;11.90;99.90;;;;;;5463746;26;20038;-72
2024/04/11 03:13:38;;;;;;;7.07;2.03;;;11.90;99.90;;;;;;5464160;26;20031;-72
2024/04/11 03:16:06;;;;;;;7.28;1.90;;;11.90;99.90;;;;;;5454072;26;20038;-72
2024/04/11 03:18:36;;;;;;;6.68;2.03;;;11.90;99.90;;;;;;5469692;26;20034;-72
2024/04/11 03:21:03;;;;;;;7.05;2.10;;;11.90;99.90;;;;;;5485633;26;20038;-72
2024/04/11 03:23:31;;;;;;;5.60;1.70;;;11.90;99.90;;;;;;5464580;26;20030;-72
2024/04/11 03:25:58;;;;;;;9.10;2.38;;;11.90;99.90;;;;;;5462577;26;20770;-72
2024/04/11 03:28:26;;;;;;;5.53;2.00;;;11.90;99.90;;;;;;5470055;26;20026;-72
2024/04/11 03:30:55;;;;;;;8.13;2.05;;;11.90;99.90;;;;;;5474609;26;20359;-72
2024/04/11 03:33:22;;;;;;;11.15;2.20;;;11.90;99.90;;;;;;5456192;26;20038;-72
2024/04/11 03:35:56;;;;;;;6.38;1.95;;;11.90;99.90;;;;;;5469296;26;20035;-72
2024/04/11 03:38:28;;;;;;;7.45;1.88;;;11.90;99.90;;;;;;5479041;26;20038;-72
2024/04/11 03:40:56;;;;;;;8.32;2.33;;;11.90;99.90;;;;;;5469808;26;20486;-72
2024/04/11 03:43:22;;;;;;;10.85;2.33;;;12.00;99.90;;;;;;5486500;26;20034;-72
2024/04/11 03:45:49;;;;;;;7.63;2.10;;;12.00;99.90;;;;;;5482926;26;20382;-72
2024/04/11 03:48:16;;;;;;;12.07;2.53;;;12.00;99.90;;;;;;5468820;26;20073;-72
2024/04/11 03:50:43;;;;;;;9.43;2.72;;;11.90;99.90;;;;;;5469972;26;20372;-72
2024/04/11 03:53:11;;;;;;;8.85;2.47;;;12.00;99.90;;;;;;5484213;26;20030;-72
2024/04/11 03:55:41;;;;;;;8.48;2.30;;;12.00;99.90;;;;;;5457789;26;20027;-72
2024/04/11 03:58:09;;;;;;;11.23;2.10;;;12.00;99.90;;;;;;5480290;26;20029;-72
2024/04/11 04:00:36;;;;;;;8.88;2.05;;;12.00;99.90;;;;;;5462143;26;20023;-72
2024/04/11 04:03:03;;;;;;;7.45;2.10;;;12.00;99.90;;;;;;5473375;26;20031;-72
2024/04/11 04:05:31;;;;;;;9.75;2.25;;;12.00;99.90;;;;;;5456761;26;20035;-72
2024/04/11 04:07:58;;;;;;;9.88;2.50;;;12.00;99.90;;;;;;5473371;26;20026;-72
2024/04/11 04:10:25;;;;;;;9.23;2.55;;;12.00;99.90;;;;;;5476570;26;20034;-72
2024/04/11 04:12:57;;;;;;;13.65;2.53;;;12.00;99.90;;;;;;5474768;26;20490;-72
2024/04/11 04:15:25;;;;;;;7.38;2.03;;;11.90;99.90;;;;;;5456771;26;20034;-72
2024/04/11 04:17:53;;;;;;;13.43;3.17;;;11.90;99.90;;;;;;5478009;26;20037;-72
2024/04/11 04:20:20;;;;;;;7.28;2.10;;;12.00;99.90;;;;;;5467390;26;20454;-72
2024/04/11 04:22:49;;;;;;;11.80;1.98;;;11.90;99.90;;;;;;5461620;26;20034;-72
2024/04/11 04:25:16;;;;;;;12.43;2.50;;;11.90;99.90;;;;;;5483162;26;20038;-72
2024/04/11 04:27:44;;;;;;;9.48;2.75;;;11.90;99.90;;;;;;5465845;26;20035;-72
2024/04/11 04:30:12;;;;;;;9.52;2.22;;;11.90;99.90;;;;;;5465540;26;20379;-72
2024/04/11 04:32:39;;;;;;;10.73;2.55;;;11.80;99.90;;;;;;5478554;26;20038;-72
2024/04/11 04:35:09;;;;;;;8.50;2.20;;;11.80;99.90;;;;;;5472062;26;20047;-72
2024/04/11 04:37:40;;;;;;;6.00;2.33;;;11.70;99.90;;;;;;5471724;26;20030;-72
2024/04/11 04:40:07;;;;;;;9.98;2.65;;;11.70;99.90;;;;;;5462646;26;20002;-72
2024/04/11 04:42:34;;;;;;;11.60;2.35;;;11.60;99.90;;;;;;5470860;26;20971;-72
2024/04/11 04:45:01;;;;;;;8.65;2.67;;;11.60;99.90;;;;;;5462740;26;20446;-72
2024/04/11 04:47:34;;;;;;;8.55;2.53;;;11.60;99.90;;;;;;5462730;26;20030;-72
2024/04/11 04:50:02;;;;;;;11.07;2.97;;;11.60;99.90;;;;;;5462947;26;20026;-72
2024/04/11 04:52:29;;;;;;;11.23;2.65;;;11.60;99.90;;;;;;5460583;26;20031;-72
2024/04/11 04:54:56;;;;;;;9.60;2.42;;;11.60;99.90;;;;;;5458136;26;20030;-72
2024/04/11 04:57:25;;;;;;;10.15;2.92;;;11.60;99.90;;;;;;5463797;26;20033;-72
2024/04/11 04:59:52;;;;;;;10.05;2.40;;;11.50;99.90;;;;;;5480934;26;20023;-72
2024/04/11 05:02:20;;;;;;;9.60;2.80;;;11.50;99.90;;;;;;5481206;26;20042;-71
2024/04/11 05:04:49;;;;;;;13.07;2.33;;;11.50;99.90;;;;;;5485906;26;20026;-72
2024/04/11 05:07:17;;;;;;;9.05;2.35;;;11.40;99.90;;;;;;5468304;26;20496;-72
2024/04/11 05:09:46;;;;;;;7.70;2.15;;;11.40;99.90;;;;;;5478220;26;20030;-71
2024/04/11 05:12:12;;;;;;;7.60;2.65;;;11.40;99.90;;;;;;5464522;26;20374;-71
2024/04/11 05:14:39;;;;;;;9.63;2.40;;;11.40;99.90;;;;;;5462916;26;20030;-71
2024/04/11 05:17:08;;;;;;;10.27;2.30;;;11.40;99.90;;;;;;5461687;26;20059;-71
2024/04/11 05:19:35;;;;;;;10.98;2.50;;;11.30;99.90;;;;;;5474883;26;20474;-72
2024/04/11 05:22:04;;;;;;;8.15;2.63;;;11.30;99.90;;;;;;5481287;26;20026;-72
2024/04/11 05:24:31;;;;;;;9.65;2.40;;;11.20;99.90;;;;;;5469918;26;20036;-73
2024/04/11 05:26:58;;;;;;;8.82;3.13;;;11.20;99.90;;;;;;5466297;26;20034;-72
2024/04/11 05:29:26;;;;;;;8.57;2.90;;;11.10;99.90;;;;;;5478944;26;20031;-72
2024/04/11 05:31:56;;;;;;;11.50;3.00;;;11.10;99.90;;;;;;5463015;26;20039;-73
2024/04/11 05:34:26;;;;;;;10.38;3.13;;;11.10;99.90;;;;;;5468892;26;20035;-73
2024/04/11 05:36:54;;;;;;;16.38;3.50;;;11.00;99.90;;;;;;5482078;26;20056;-72
2024/04/11 05:39:22;;;;;;;13.93;3.13;;;11.00;99.90;;;;;;5477684;26;20420;-74
2024/04/11 05:41:49;;;;;;;10.65;4.18;;;11.00;99.90;;;;;;5467077;26;20046;-72
2024/04/11 05:44:16;;;;;;;11.63;3.53;;;11.00;99.90;;;;;;5463365;26;20385;-73
2024/04/11 05:46:45;;;;;;;13.07;3.30;;;10.90;99.90;;;;;;5479033;26;20029;-72
2024/04/11 05:49:13;;;;;;;12.02;3.35;;;10.90;99.90;;;;;;5469339;26;20037;-73
2024/04/11 05:51:40;;;;;;;15.23;3.67;;;10.90;99.90;;;;;;5477695;26;20038;-72
2024/04/11 05:54:07;;;;;;;13.05;3.60;;;10.90;99.90;;;;;;5485016;26;20030;-72
2024/04/11 05:56:34;;;;;;;14.50;3.53;;;10.90;99.90;;;;;;5483968;26;20033;-73
2024/04/11 05:59:01;;;;;;;8.15;3.63;;;10.90;99.90;;;;;;5471877;26;20035;-72
2024/04/11 06:01:33;;;;;;;8.32;3.67;;;10.90;99.90;;;;;;5456258;26;20377;-72
2024/04/11 06:04:00;;;;;;;11.32;3.17;;;10.90;99.90;;;;;;5478699;26;20026;-73
2024/04/11 06:06:27;;;;;;;10.80;3.63;;;10.90;99.90;;;;;;5474192;26;20029;-72
2024/04/11 06:08:55;;;;;;;10.95;3.15;;;10.90;99.90;;;;;;5483155;26;20022;-72
2024/04/11 06:11:22;;;;;;;12.30;3.75;;;10.90;99.90;;;;;;5485223;26;20029;-72
2024/04/11 06:13:49;;;;;;;9.77;3.17;;;10.90;99.90;;;;;;5471843;26;20043;-72
2024/04/11 06:16:16;;;;;;;10.57;3.50;;;10.90;99.90;;;;;;5459807;26;20039;-73
2024/04/11 06:18:48;;;;;;;9.00;3.10;;;10.90;99.90;;;;;;5476925;26;20029;-73
2024/04/11 06:21:18;;;;;;;10.77;3.60;;;11.00;99.90;;;;;;5472670;26;20038;-72
2024/04/11 06:23:45;;;;;;;10.70;3.55;;;11.00;99.90;;;;;;5483785;26;20026;-73
2024/04/11 06:26:13;;;;;;;8.60;3.65;;;11.00;99.90;;;;;;5475749;26;20038;-72
2024/04/11 06:28:40;;;;;;;7.90;3.42;;;10.90;99.90;;;;;;5470032;26;20022;-72
2024/04/11 06:31:09;;;;;;;11.20;3.40;;;10.90;99.90;;;;;;5464005;26;20026;-72
2024/04/11 06:33:40;;;;;;;7.97;3.25;;;10.90;99.90;;;;;;5484363;26;20022;-72
2024/04/11 06:36:08;;;;;;;13.27;3.35;;;11.00;99.90;;;;;;5460874;26;20025;-72
2024/04/11 06:38:35;;;;;;;10.68;3.38;;;10.90;99.90;;;;;;5476247;26;20027;-72
2024/04/11 06:41:03;;;;;;;9.02;3.70;;;10.90;99.90;;;;;;5452618;26;20465;-72
2024/04/11 06:43:31;;;;;;;10.70;3.35;;;10.90;99.90;;;;;;5461028;26;20022;-72
2024/04/11 06:45:58;;;;;;;9.52;3.63;;;11.00;99.90;;;;;;5484012;26;20033;-73
2024/04/11 06:48:24;;;;;;;9.27;3.40;;;10.90;99.90;;;;;;5469743;26;20030;-72
2024/04/11 06:50:53;;;;;;;15.02;3.53;;;11.00;99.90;;;;;;5477649;26;20038;-72
2024/04/11 06:53:22;;;;;;;12.40;3.20;;;11.00;99.90;;;;;;5468687;26;20009;-72
2024/04/11 06:55:49;;;;;;;9.65;3.35;;;11.00;99.90;;;;;;5484213;26;20028;-72
2024/04/11 06:58:23;;;;;;;10.32;4.15;;;11.00;99.90;;;;;;5467898;26;20030;-72
2024/04/11 07:01:01;;;;;;;15.95;3.92;;;11.00;99.90;;;;;;5478070;26;20603;-72
2024/04/11 07:03:29;;;;;;;11.90;3.88;;;11.10;99.90;;;;;;5482181;26;20030;-72
2024/04/11 07:05:59;;;;;;;14.60;3.88;;;11.10;99.90;;;;;;5483615;26;20071;-72
2024/04/11 07:08:31;;;;;;;10.93;3.75;;;11.10;99.90;;;;;;5472821;26;20034;-72
2024/04/11 07:11:18;;;;;;;;;;;11.10;99.90;;;;;;5463612;26;20029;-72
2024/04/11 07:13:55;;;;;;;11.55;3.72;;;11.20;99.90;;;;;;5460549;26;19952;-72
2024/04/11 07:16:29;;;;;;;16.25;4.28;;;11.20;99.90;;;;;;5459094;26;20027;-72
2024/04/11 07:18:56;;;;;;;8.05;3.53;;;11.20;99.90;;;;;;5461565;26;20030;-72
2024/04/11 07:21:30;;;;;;;10.20;3.90;;;11.20;99.90;;;;;;5464793;26;20380;-73
2024/04/11 07:23:58;;;;;;;10.18;3.65;;;11.30;99.90;;;;;;5468198;26;20030;-73
2024/04/11 07:26:31;;;;;;;10.48;4.13;;;11.30;99.90;;;;;;5476103;26;20026;-72
2024/04/11 07:29:03;;;;;;;9.48;4.07;;;11.30;99.90;;;;;;5481882;26;20022;-72
2024/04/11 07:31:33;;;;;;;11.32;3.95;;;11.30;99.90;;;;;;5458042;26;20026;-72
2024/04/11 07:34:02;;;;;;;12.00;4.47;;;11.30;99.90;;;;;;5476866;26;20386;-72
2024/04/11 07:36:32;;;;;;;15.80;4.60;;;11.30;99.90;;;;;;5469001;26;20033;-72
2024/04/11 07:38:59;;;;;;;9.63;4.18;;;11.30;99.90;;;;;;5478118;26;20042;-71
2024/04/11 07:41:44;;;;;;;13.48;4.43;;;11.30;99.90;;;;;;5467879;26;20039;-72
2024/04/11 07:44:17;;;;;;;12.98;5.03;;;11.30;99.90;;;;;;5474159;26;20031;-71
2024/04/11 07:46:44;;;;;;;13.05;3.97;;;11.30;99.90;;;;;;5482612;26;20030;-72
2024/04/11 07:49:11;;;;;;;13.63;4.35;;;11.40;99.90;;;;;;5471439;26;20437;-72
2024/04/11 07:51:39;;;;;;;11.80;4.28;;;11.40;99.90;;;;;;5475568;26;20030;-72
2024/04/11 07:54:12;;;;;;;11.77;4.35;;;11.40;99.90;;;;;;5470014;26;20034;-72
2024/04/11 07:56:40;;;;;;;10.85;4.40;;;11.50;99.90;;;;;;5474427;26;20726;-71
2024/04/11 07:59:11;;;;;;;15.07;4.97;;;11.60;99.90;;;;;;5460539;26;20022;-72
2024/04/11 08:01:41;;;;;;;14.75;4.85;;;11.60;99.90;;;;;;5461314;26;20042;-72
2024/04/11 08:04:11;;;;;;;9.73;4.57;;;11.60;99.90;;;;;;5483017;26;20038;-71
2024/04/11 08:06:38;;;;;;;13.98;4.85;;;11.60;99.90;;;;;;5477318;26;20478;-72
2024/04/11 08:09:07;;;;;;;10.65;4.90;;;11.60;99.90;;;;;;5482641;26;20043;-72
2024/04/11 08:11:35;;;;;;;10.50;4.85;;;11.60;99.90;;;;;;5462641;26;20035;-72
2024/04/11 08:14:06;;;;;;;15.38;4.55;;;11.60;99.90;;;;;;5481568;26;20369;-71
2024/04/11 08:16:33;;;;;;;14.20;4.57;;;11.60;99.90;;;;;;5486596;26;20038;-72
2024/04/11 08:19:04;;;;;;;10.50;4.55;;;11.60;99.90;;;;;;5458755;26;20038;-72
2024/04/11 08:21:32;;;;;;;11.75;4.80;;;11.70;99.90;;;;;;5456501;26;20481;-71
2024/04/11 08:24:00;;;;;;;10.05;4.15;;;11.70;99.90;;;;;;5487135;26;20041;-71
2024/04/11 08:26:29;;;;;;;15.23;5.05;;;11.70;99.90;;;;;;5455403;26;20030;-71
2024/04/11 08:28:55;;;;;;;14.70;5.03;;;11.80;99.90;;;;;;5461353;26;20023;-71
2024/04/11 08:31:27;;;;;;;15.20;5.03;;;11.80;99.90;;;;;;5451580;26;20051;-71
2024/04/11 08:33:58;;;;;;;9.10;5.00;;;11.80;99.90;;;;;;5475224;26;20894;-72
2024/04/11 08:36:26;;;;;;;11.23;5.03;;;11.80;99.90;;;;;;5473650;26;20047;-72
2024/04/11 08:38:55;;;;;;;14.90;6.18;;;11.90;99.90;;;;;;5473615;26;20042;-72
2024/04/11 08:41:22;;;;;;;15.50;5.22;;;11.90;99.90;;;;;;5480015;26;20031;-72
2024/04/11 08:43:51;;;;;;;12.13;5.15;;;12.00;99.90;;;;;;5486893;26;20029;-72
2024/04/11 08:46:18;;;;;;;12.20;5.22;;;12.00;99.90;;;;;;5470960;26;20027;-72
2024/04/11 08:48:45;;;;;;;12.55;5.30;;;12.10;99.90;;;;;;5480659;26;20042;-72
2024/04/11 08:51:19;;;;;;;12.02;5.28;;;12.00;99.90;;;;;;5485526;26;20025;-72
2024/04/11 08:53:52;;;;;;;15.05;5.95;;;12.10;99.90;;;;;;5466585;26;20359;-72
2024/04/11 08:56:19;;;;;;;12.60;5.90;;;12.10;99.90;;;;;;5465203;26;20046;-72
2024/04/11 08:58:48;;;;;;;12.98;6.10;;;12.10;99.90;;;;;;5470640;26;20027;-72
2024/04/11 09:01:17;;;;;;;15.68;5.93;;;12.20;99.90;;;;;;5475708;26;20477;-72
2024/04/11 09:03:48;;;;;;;17.85;6.03;;;12.10;99.90;;;;;;5481811;26;20406;-72
2024/04/11 09:06:23;;;;;;;15.68;6.22;;;12.20;99.90;;;;;;5463739;26;20042;-72
2024/04/11 09:08:55;;;;;;;15.20;6.25;;;12.20;99.90;;;;;;5477433;26;20038;-72
2024/04/11 09:11:23;;;;;;;17.63;6.55;;;12.30;99.90;;;;;;5459201;26;20041;-72
2024/04/11 09:13:50;;;;;;;14.43;6.47;;;12.30;99.90;;;;;;5466881;26;20429;-72
2024/04/11 09:16:27;;;;;;;17.08;6.45;;;12.30;99.90;;;;;;5456288;26;20031;-72
2024/04/11 09:19:05;;;;;;;14.77;7.15;;;12.30;99.90;;;;;;5469115;26;20029;-72
2024/04/11 09:21:32;;;;;;;17.98;7.97;;;12.40;99.90;;;;;;5454120;26;20027;-72
2024/04/11 09:23:59;;;;;;;15.23;7.00;;;12.40;99.90;;;;;;5470586;26;20022;-71
2024/04/11 09:26:29;;;;;;;18.42;8.02;;;12.40;99.90;;;;;;5454128;26;20776;-72
2024/04/11 09:28:56;;;;;;;17.08;8.27;;;12.40;99.90;;;;;;5481422;26;20022;-72
2024/04/11 09:31:26;;;;;;;18.85;8.20;;;12.40;99.90;;;;;;5472743;26;20051;-72
2024/04/11 09:33:53;;;;;;;17.65;8.70;;;12.50;99.90;;;;;;5485608;26;20022;-72
2024/04/11 09:36:23;;;;;;;17.08;8.27;;;12.50;99.90;;;;;;5478001;26;20037;-72
2024/04/11 09:38:58;;;;;;;16.15;8.98;;;12.50;99.90;;;;;;5461742;26;20022;-72
2024/04/11 09:41:26;;;;;;;17.40;8.60;;;12.50;99.90;;;;;;5469698;26;20035;-71
2024/04/11 09:43:55;;;;;;;15.60;8.45;;;12.60;99.90;;;;;;5485846;26;20034;-72
2024/04/11 09:46:23;;;;;;;13.90;7.82;;;12.60;99.90;;;;;;5455295;26;20377;-71
2024/04/11 09:48:51;;;;;;;16.17;8.45;;;12.60;99.90;;;;;;5460385;26;20039;-71
2024/04/11 09:51:20;;;;;;;18.83;9.00;;;12.60;99.90;;;;;;5465078;26;20035;-71
2024/04/11 09:53:47;;;;;;;16.58;9.40;;;12.60;99.90;;;;;;5476525;26;20038;-71
2024/04/11 09:56:17;;;;;;;15.93;9.40;;;12.60;99.90;;;;;;5476615;26;20026;-71
2024/04/11 09:58:45;;;;;;;15.52;9.48;;;12.70;99.90;;;;;;5465884;26;20474;-71
2024/04/11 10:01:30;;;;;;;15.45;8.82;;;12.70;99.90;;;;;;5483806;26;20490;-71
2024/04/11 10:04:03;;;;;;;18.25;9.38;;;12.70;99.90;;;;;;5465178;26;20034;-71
2024/04/11 10:06:35;;;;;;;17.42;9.82;;;12.70;99.90;;;;;;5473601;26;20391;-71
2024/04/11 10:09:17;;;;;;;20.13;10.00;;;12.70;99.90;;;;;;5467133;26;20018;-71
2024/04/11 10:11:51;;;;;;;15.93;9.88;;;12.70;99.90;;;;;;5450031;26;20372;-71
2024/04/11 10:14:21;;;;;;;15.18;9.68;;;12.70;99.90;;;;;;5471880;26;20481;-71
2024/04/11 10:16:51;;;;;;;16.58;9.68;;;12.80;99.90;;;;;;5480459;26;20038;-71
2024/04/11 10:19:28;;;;;;;19.52;10.40;;;12.80;99.90;;;;;;5451365;26;20121;-71
2024/04/11 10:22:06;;;;;;;16.40;10.32;;;12.80;99.90;;;;;;5472335;26;20042;-71
2024/04/11 10:24:37;;;;;;;18.30;11.32;;;12.80;99.90;;;;;;5476170;26;20150;-71
2024/04/11 10:27:11;;;;;;;17.50;10.82;;;12.80;99.90;;;;;;5451652;26;20039;-71
2024/04/11 10:29:46;;;;;;;18.38;11.13;;;12.80;99.90;;;;;;5473955;26;20031;-70
2024/04/11 10:32:21;;;;;;;21.00;10.80;;;12.80;99.90;;;;;;5478903;26;20026;-71
2024/04/11 10:34:56;;;;;;;20.63;11.75;;;12.80;99.90;;;;;;5476373;26;20050;-72
2024/04/11 10:37:24;;;;;;;15.07;10.73;;;12.90;99.90;;;;;;5453470;26;20027;-72
2024/04/11 10:39:57;;;;;;;18.00;11.20;;;12.80;99.90;;;;;;5457305;26;20032;-72
2024/04/11 10:42:36;;;;;;;18.13;10.88;;;12.90;99.90;;;;;;5470602;26;20034;-73
2024/04/11 10:45:07;;;;;;;19.40;10.85;;;12.90;99.90;;;;;;5451067;26;20038;-73
2024/04/11 10:47:35;;;;;;;19.52;11.13;;;12.90;99.90;;;;;;5467408;26;20034;-72
2024/04/11 10:50:09;;;;;;;16.73;11.57;;;12.90;99.90;;;;;;5481576;26;20022;-73
2024/04/11 10:52:40;;;;;;;20.48;11.57;;;13.00;99.90;;;;;;5467046;26;20026;-72
2024/04/11 10:55:12;;;;;;;18.98;11.57;;;13.00;99.90;;;;;;5461341;26;20432;-73
2024/04/11 10:57:44;;;;;;;22.23;12.30;;;13.10;99.90;;;;;;5483412;26;20034;-72
2024/04/11 11:00:12;;;;;;;17.90;11.98;;;13.10;99.90;;;;;;5479818;26;20030;-71
2024/04/11 11:02:44;;;;;;;19.02;12.48;;;13.10;99.90;;;;;;5459829;26;20505;-70
2024/04/11 11:05:14;;;;;;;20.45;11.75;;;13.10;99.90;;;;;;5478151;26;20030;-71
2024/04/11 11:07:41;;;;;;;19.75;12.05;;;13.10;99.90;;;;;;5463263;26;20022;-71
2024/04/11 11:10:11;;;;;;;19.38;12.43;;;13.10;99.90;;;;;;5472865;26;20030;-71
2024/04/11 11:12:38;;;;;;;21.42;12.40;;;13.10;99.90;;;;;;5472583;26;20363;-71
2024/04/11 11:15:06;;;;;;;20.95;12.75;;;13.10;99.90;;;;;;5459973;26;20029;-71
2024/04/11 11:17:39;;;;;;;19.05;12.65;;;13.10;99.90;;;;;;5476697;26;20109;-71
2024/04/11 11:20:09;;;;;;;19.63;12.75;;;13.10;99.90;;;;;;5479467;26;20373;-71
2024/04/11 11:22:40;;;;;;;21.73;12.35;;;13.10;99.90;;;;;;5483161;26;20026;-71
2024/04/11 11:25:08;;;;;;;19.60;12.75;;;13.10;99.90;;;;;;5481774;26;20043;-71
2024/04/11 11:27:36;;;;;;;20.05;12.40;;;13.10;99.90;;;;;;5463508;26;20035;-71
2024/04/11 11:30:06;;;;;;;18.67;12.25;;;13.10;99.90;;;;;;5472496;26;20381;-73
2024/04/11 11:32:35;;;;;;;17.88;11.77;;;13.20;99.90;;;;;;5455843;26;20030;-72
2024/04/11 11:35:05;;;;;;;22.10;13.20;;;13.20;99.90;;;;;;5454064;26;20038;-73
2024/04/11 11:37:32;;;;;;;19.65;12.70;;;13.30;99.90;;;;;;5482160;26;20031;-73
2024/04/11 11:40:32;;;;;;;20.27;12.13;;;13.30;99.90;;;;;;5464341;26;20030;-72
2024/04/11 11:42:52;;;;;;;19.02;12.55;;;13.30;99.90;;;;;;5479215;26;20026;-71
2024/04/11 11:45:29;;;;;;;18.45;12.30;;;13.30;99.90;;;;;;5479309;26;20030;-72
2024/04/11 11:47:57;;;;;;;19.83;12.70;;;13.40;99.90;;;;;;5482771;26;20026;-72
2024/04/11 11:50:35;;;;;;;16.20;10.98;;;13.40;99.90;;;;;;5480789;26;20055;-72
2024/04/11 11:53:45;;;;;;;16.70;11.18;;;13.50;99.90;;;;;;5475434;26;20038;-71
2024/04/11 11:55:58;;;;;;;17.58;11.60;;;13.50;99.90;;;;;;5467179;26;20027;-72
2024/04/11 11:58:25;;;;;;;17.45;11.57;;;13.50;99.90;;;;;;5475567;26;20027;-72
2024/04/11 12:00:59;;;;;;;16.45;10.95;;;13.50;99.90;;;;;;5461982;26;20027;-72
2024/04/11 12:03:30;;;;;;;15.90;11.30;;;13.60;99.90;;;;;;5476809;26;20042;-72
2024/04/11 12:06:04;;;;;;;16.17;10.93;;;13.60;99.90;;;;;;5474097;26;20031;-71
2024/04/11 12:08:37;;;;;;;18.45;11.90;;;13.60;99.90;;;;;;5472208;26;20046;-71
2024/04/11 12:13:31;;;;;;;19.10;11.27;;;13.60;99.90;;;;;;5479856;26;20019;-71
2024/04/11 12:15:58;;;;;;;15.10;10.57;;;13.70;99.90;;;;;;5468998;26;20492;-70
2024/04/11 12:18:25;;;;;;;17.15;11.70;;;13.70;99.90;;;;;;5467156;26;20031;-70
2024/04/11 12:20:52;;;;;;;18.05;11.07;;;13.70;99.90;;;;;;5470124;26;20034;-70
2024/04/11 12:23:28;;;;;;;18.67;11.48;;;13.70;99.90;;;;;;5466247;26;20377;-70
2024/04/11 12:25:56;;;;;;;18.95;12.60;;;13.70;99.90;;;;;;5475524;26;20030;-70
2024/04/11 12:28:23;;;;;;;19.08;11.55;;;13.70;99.90;;;;;;5474120;26;20038;-71
2024/04/11 12:30:51;;;;;;;14.80;10.75;;;13.70;99.90;;;;;;5465714;26;20039;-70
2024/04/11 12:33:18;;;;;;;16.48;10.65;;;13.70;99.90;;;;;;5478327;25;20026;-71
2024/04/11 12:35:55;;;;;;;17.52;10.90;;;13.70;99.90;;;;;;5469522;26;20026;-71
2024/04/11 12:38:24;;;;;;;15.45;10.70;;;13.70;99.90;;;;;;5466344;26;20039;-71
2024/04/11 12:40:51;;;;;;;17.35;10.68;;;13.60;99.90;;;;;;5450295;26;20493;-71
2024/04/11 12:43:19;;;;;;;14.70;9.52;;;13.70;99.90;;;;;;5468600;26;20025;-70
2024/04/11 12:45:52;;;;;;;14.30;9.77;;;13.70;99.90;;;;;;5476962;26;20022;-71
2024/04/11 12:48:24;;;;;;;13.30;8.57;;;13.80;99.90;;;;;;5471467;26;20022;-70
2024/04/11 12:50:55;;;;;;;13.63;9.52;;;13.80;99.90;;;;;;5470345;26;20496;-71
2024/04/11 12:53:22;;;;;;;11.68;8.20;;;13.80;99.90;;;;;;5453537;26;20030;-71